Terminal Aerodrome Forecast
Issued by NWS

Home | Current Version | Previous Version | Text Only | Print | Product List | Glossary On
Versions: 1 2 3 4 5 6 7 8 9 10 11 12 13
854
FTUS46 KLOX 011723
TAFPRB
TAF
KPRB 011723Z 0118/0218 33008KT P6SM SKC
     FM020200 31014KT P6SM SKC
     FM020700 33008KT P6SM SKC=

USA.gov is the U.S. government's official web portal to all federal, state and local government web resources and services.